Time;durP1;ratioP1;P1;durP2;ratioP2;P2;SDS_P1;SDS_P2;PMS_P1;PMS_P2;Temp;Humidity;BMP_temperature;BMP_pressure;BME280_temperature;BME280_humidity;BME280_pressure;Samples;Min_cycle;Max_cycle;Signal;HPM_P1;HPM_P2
2021/06/18 00:00:42;;;;;;;15.85;6.53;;;;;;;;;;5042854;28;20055;-59
2021/06/18 00:03:08;;;;;;;14.90;6.65;;;;;;;;;;5045308;28;20037;-58
2021/06/18 00:05:36;;;;;;;14.00;6.38;;;;;;;;;;5041528;28;20037;-54
2021/06/18 00:08:04;;;;;;;16.13;6.82;;;;;;;;;;5044908;28;20044;-57
2021/06/18 00:10:31;;;;;;;11.98;7.15;;;;;;;;;;5059047;28;20044;-55
2021/06/18 00:12:58;;;;;;;13.52;8.00;;;;;;;;;;5046229;28;20095;-55
2021/06/18 00:15:25;;;;;;;15.85;7.10;;;;;;;;;;5044758;28;20122;-58
2021/06/18 00:17:52;;;;;;;16.65;7.80;;;;;;;;;;5043031;28;20044;-54
2021/06/18 00:20:19;;;;;;;12.00;7.13;;;;;;;;;;5045333;28;20055;-55
2021/06/18 00:22:46;;;;;;;12.77;7.70;;;;;;;;;;5041073;28;20060;-57
2021/06/18 00:25:16;;;;;;;12.00;7.13;;;;;;;;;;5045930;28;20040;-55
2021/06/18 00:27:43;;;;;;;13.65;7.05;;;;;;;;;;5040708;28;20036;-56
2021/06/18 00:30:10;;;;;;;15.32;7.70;;;;;;;;;;5046370;28;20045;-55
2021/06/18 00:32:37;;;;;;;12.95;7.68;;;;;;;;;;5041985;28;20118;-52
2021/06/18 00:35:05;;;;;;;13.80;7.50;;;;;;;;;;5046669;28;20049;-58
2021/06/18 00:37:32;;;;;;;13.95;7.50;;;;;;;;;;5062477;28;20041;-53
2021/06/18 00:39:59;;;;;;;19.60;8.20;;;;;;;;;;5044991;28;20122;-58
2021/06/18 00:42:29;;;;;;;13.68;7.10;;;;;;;;;;5042634;28;20037;-59
2021/06/18 00:44:56;;;;;;;15.35;7.45;;;;;;;;;;5044682;28;20040;-56
2021/06/18 00:47:23;;;;;;;15.63;8.07;;;;;;;;;;5044064;28;20040;-57
2021/06/18 00:49:51;;;;;;;11.48;7.20;;;;;;;;;;5045471;28;20040;-58
2021/06/18 00:52:18;;;;;;;12.57;7.80;;;;;;;;;;5041705;28;20049;-55
2021/06/18 00:54:46;;;;;;;15.60;7.28;;;;;;;;;;5044871;28;20045;-54
2021/06/18 00:57:13;;;;;;;14.82;7.82;;;;;;;;;;5042881;28;20047;-56
2021/06/18 00:59:41;;;;;;;19.25;7.97;;;;;;;;;;5043267;28;20049;-55
2021/06/18 01:02:08;;;;;;;17.08;8.55;;;;;;;;;;5062818;28;20048;-56
2021/06/18 01:04:36;;;;;;;16.75;8.38;;;;;;;;;;5057710;28;20041;-55
2021/06/18 01:07:04;;;;;;;14.85;8.13;;;;;;;;;;5063239;28;20041;-55
2021/06/18 01:09:35;;;;;;;14.77;8.52;;;;;;;;;;5031924;28;20045;-55
2021/06/18 01:12:03;;;;;;;16.95;8.70;;;;;;;;;;5044020;28;20048;-55
2021/06/18 01:14:36;;;;;;;12.27;8.18;;;;;;;;;;5036595;28;20044;-56
2021/06/18 01:17:07;;;;;;;15.63;8.20;;;;;;;;;;5044585;28;20040;-57
2021/06/18 01:19:40;;;;;;;12.60;7.53;;;;;;;;;;5055697;28;20113;-56
2021/06/18 01:22:11;;;;;;;14.93;7.90;;;;;;;;;;5043031;28;20040;-57
2021/06/18 01:24:41;;;;;;;17.63;8.75;;;;;;;;;;5040063;28;20037;-57
2021/06/18 01:27:22;;;;;;;14.18;8.70;;;;;;;;;;5044701;28;20065;-59
2021/06/18 01:29:51;;;;;;;22.48;9.15;;;;;;;;;;5059923;28;20051;-54
2021/06/18 01:32:20;;;;;;;14.52;8.63;;;;;;;;;;5063691;28;20033;-57
2021/06/18 01:34:49;;;;;;;14.32;8.90;;;;;;;;;;5042991;28;20049;-58
2021/06/18 01:37:17;;;;;;;20.05;9.25;;;;;;;;;;5044098;28;20037;-57
2021/06/18 01:39:45;;;;;;;14.32;9.05;;;;;;;;;;5040978;28;20067;-57
2021/06/18 01:42:12;;;;;;;15.10;8.50;;;;;;;;;;5044832;28;20044;-55
2021/06/18 01:44:39;;;;;;;15.82;9.18;;;;;;;;;;5042297;28;20053;-53
2021/06/18 01:47:07;;;;;;;16.48;9.38;;;;;;;;;;5044101;28;20048;-56
2021/06/18 01:49:35;;;;;;;15.23;8.85;;;;;;;;;;5040146;28;20060;-57
2021/06/18 01:52:03;;;;;;;13.55;8.45;;;;;;;;;;5044698;28;20114;-55
2021/06/18 01:54:33;;;;;;;16.75;8.07;;;;;;;;;;5042409;28;20040;-55
2021/06/18 01:57:00;;;;;;;14.93;8.63;;;;;;;;;;5045777;28;20069;-55
2021/06/18 01:59:29;;;;;;;14.40;8.90;;;;;;;;;;5045431;28;20029;-53
2021/06/18 02:01:55;;;;;;;;;;;;;;;;;;5058011;28;20296;-56
2021/06/18 02:04:23;;;;;;;13.70;8.30;;;;;;;;;;5061440;28;19932;-53
2021/06/18 02:06:50;;;;;;;14.65;8.90;;;;;;;;;;5043069;28;20051;-57
2021/06/18 02:09:17;;;;;;;15.15;9.35;;;;;;;;;;5040576;28;20048;-57
2021/06/18 02:11:43;;;;;;;14.23;8.50;;;;;;;;;;5035853;28;20048;-59
2021/06/18 02:14:15;;;;;;;17.00;9.13;;;;;;;;;;5043920;28;20056;-59
2021/06/18 02:16:42;;;;;;;13.85;8.77;;;;;;;;;;5040487;28;20040;-59
2021/06/18 02:19:14;;;;;;;16.75;8.23;;;;;;;;;;5043570;28;20029;-59
2021/06/18 02:21:42;;;;;;;14.77;9.70;;;;;;;;;;5058765;28;20048;-58
2021/06/18 02:24:08;;;;;;;17.13;10.07;;;;;;;;;;5043860;28;20045;-56
2021/06/18 02:26:35;;;;;;;14.93;8.68;;;;;;;;;;5039557;28;20126;-51
2021/06/18 02:29:02;;;;;;;15.48;9.48;;;;;;;;;;5042749;28;20029;-57
2021/06/18 02:31:30;;;;;;;16.27;9.27;;;;;;;;;;5039730;28;20155;-57
2021/06/18 02:33:56;;;;;;;19.38;9.40;;;;;;;;;;5043824;28;20051;-53
2021/06/18 02:36:23;;;;;;;17.45;9.70;;;;;;;;;;5039884;28;20117;-55
2021/06/18 02:38:51;;;;;;;15.48;9.00;;;;;;;;;;5042120;28;20037;-58
2021/06/18 02:41:18;;;;;;;17.30;9.00;;;;;;;;;;5043855;28;20041;-56
2021/06/18 02:43:45;;;;;;;16.25;9.77;;;;;;;;;;5041886;28;20053;-57
2021/06/18 02:46:13;;;;;;;15.68;9.57;;;;;;;;;;5043731;28;20041;-54
2021/06/18 02:48:43;;;;;;;16.58;9.77;;;;;;;;;;5040182;28;20040;-54
2021/06/18 02:51:12;;;;;;;16.58;9.05;;;;;;;;;;5044749;28;20053;-56
2021/06/18 02:53:41;;;;;;;20.67;10.15;;;;;;;;;;5040107;28;20048;-53
2021/06/18 02:56:14;;;;;;;16.67;9.77;;;;;;;;;;5033945;28;20044;-54
2021/06/18 02:58:42;;;;;;;21.73;10.10;;;;;;;;;;5057043;28;20051;-56
2021/06/18 03:01:09;;;;;;;19.58;9.25;;;;;;;;;;5044771;28;20041;-57
2021/06/18 03:03:42;;;;;;;20.67;9.55;;;;;;;;;;5041555;28;20045;-56
2021/06/18 03:06:11;;;;;;;20.30;9.77;;;;;;;;;;5045883;28;20068;-59
2021/06/18 03:08:40;;;;;;;16.70;9.93;;;;;;;;;;5043176;28;20045;-55
2021/06/18 03:11:08;;;;;;;16.73;10.68;;;;;;;;;;5064935;28;20033;-54
2021/06/18 03:13:39;;;;;;;17.95;10.75;;;;;;;;;;5041560;28;20049;-57
2021/06/18 03:16:09;;;;;;;18.92;10.23;;;;;;;;;;5046230;28;20087;-57
2021/06/18 03:18:38;;;;;;;17.30;10.27;;;;;;;;;;5042458;28;20041;-55
2021/06/18 03:21:05;;;;;;;20.48;11.20;;;;;;;;;;5045919;28;20044;-55
2021/06/18 03:23:32;;;;;;;20.52;10.52;;;;;;;;;;5042923;28;20048;-57
2021/06/18 03:26:00;;;;;;;15.43;9.82;;;;;;;;;;5047349;28;20167;-53
2021/06/18 03:28:28;;;;;;;14.60;9.93;;;;;;;;;;5042615;28;20064;-57
2021/06/18 03:30:56;;;;;;;17.98;9.43;;;;;;;;;;5044919;28;20033;-54
2021/06/18 03:33:22;;;;;;;;;;;;;;;;;;5062345;28;20052;-56
2021/06/18 03:35:50;;;;;;;15.73;9.65;;;;;;;;;;5044850;28;19927;-57
2021/06/18 03:38:17;;;;;;;30.88;13.48;;;;;;;;;;5029943;28;20034;-57
2021/06/18 03:40:44;;;;;;;23.80;14.32;;;;;;;;;;5026211;28;20159;-56
2021/06/18 03:43:11;;;;;;;21.50;12.82;;;;;;;;;;5025730;28;20044;-59
2021/06/18 03:45:40;;;;;;;20.55;12.88;;;;;;;;;;5039103;28;20052;-55
2021/06/18 03:48:09;;;;;;;20.63;13.27;;;;;;;;;;5046388;28;20052;-56
2021/06/18 03:50:36;;;;;;;26.02;13.50;;;;;;;;;;5042414;28;20045;-59
2021/06/18 03:53:03;;;;;;;23.60;12.68;;;;;;;;;;5045920;28;20029;-56
2021/06/18 03:55:30;;;;;;;22.23;13.30;;;;;;;;;;5040679;28;20033;-55
2021/06/18 03:57:57;;;;;;;20.05;11.63;;;;;;;;;;5045587;28;20045;-52
2021/06/18 04:00:24;;;;;;;21.85;13.85;;;;;;;;;;5040619;28;20048;-56
2021/06/18 04:02:51;;;;;;;21.25;13.07;;;;;;;;;;5041743;28;20051;-59
2021/06/18 04:05:22;;;;;;;21.27;12.95;;;;;;;;;;5024347;28;20122;-55
2021/06/18 04:07:49;;;;;;;24.33;13.18;;;;;;;;;;5043909;28;20060;-58
2021/06/18 04:10:19;;;;;;;23.20;12.23;;;;;;;;;;5040967;28;20055;-55
2021/06/18 04:12:47;;;;;;;63.30;16.75;;;;;;;;;;5061869;28;20041;-56
2021/06/18 04:15:15;;;;;;;40.72;18.05;;;;;;;;;;5041580;28;20056;-55
2021/06/18 04:17:44;;;;;;;27.77;14.23;;;;;;;;;;5045147;28;20057;-56
2021/06/18 04:20:11;;;;;;;32.42;16.20;;;;;;;;;;5042746;28;20048;-58
2021/06/18 04:22:39;;;;;;;33.10;17.58;;;;;;;;;;5043166;28;20036;-58
2021/06/18 04:25:07;;;;;;;35.15;19.15;;;;;;;;;;5044004;28;20041;-57
2021/06/18 04:27:33;;;;;;;31.85;17.30;;;;;;;;;;5061114;28;20033;-54
2021/06/18 04:30:00;;;;;;;26.80;15.07;;;;;;;;;;5036436;28;20041;-57
2021/06/18 04:32:26;;;;;;;29.33;14.73;;;;;;;;;;5030731;28;20048;-58
2021/06/18 04:34:53;;;;;;;30.55;14.88;;;;;;;;;;5036544;28;20179;-56
2021/06/18 04:37:20;;;;;;;34.40;18.30;;;;;;;;;;5028764;28;20043;-52
2021/06/18 04:39:47;;;;;;;32.70;16.33;;;;;;;;;;5033135;28;20033;-54
2021/06/18 04:42:15;;;;;;;28.38;16.38;;;;;;;;;;5037416;28;20040;-50
2021/06/18 04:44:42;;;;;;;31.27;16.15;;;;;;;;;;5049359;28;20049;-54
2021/06/18 04:47:09;;;;;;;25.48;14.90;;;;;;;;;;5030881;28;20055;-54
2021/06/18 04:49:35;;;;;;;27.52;15.13;;;;;;;;;;5030747;28;20041;-52
2021/06/18 04:52:02;;;;;;;29.88;13.95;;;;;;;;;;5028010;28;20156;-55
2021/06/18 04:54:29;;;;;;;23.65;12.85;;;;;;;;;;5034095;28;20126;-57
2021/06/18 04:56:57;;;;;;;20.77;10.77;;;;;;;;;;5028896;28;20141;-59
2021/06/18 04:59:24;;;;;;;18.33;9.57;;;;;;;;;;5031315;28;20045;-54
2021/06/18 05:01:50;;;;;;;22.08;12.27;;;;;;;;;;5035025;28;20041;-53
2021/06/18 05:04:17;;;;;;;19.60;12.23;;;;;;;;;;5025404;28;20046;-53
2021/06/18 05:06:43;;;;;;;17.77;12.70;;;;;;;;;;5030503;28;20095;-55
2021/06/18 05:09:10;;;;;;;19.88;12.40;;;;;;;;;;5032848;28;20037;-53
2021/06/18 05:11:36;;;;;;;15.90;10.45;;;;;;;;;;5029273;28;20057;-50
2021/06/18 05:14:04;;;;;;;20.90;11.77;;;;;;;;;;5033189;28;20052;-56
2021/06/18 05:16:31;;;;;;;16.52;10.75;;;;;;;;;;5029485;28;20033;-55
2021/06/18 05:18:58;;;;;;;20.75;12.27;;;;;;;;;;5027716;28;20049;-54
2021/06/18 05:21:24;;;;;;;20.38;12.98;;;;;;;;;;5028457;28;20049;-54
2021/06/18 05:23:50;;;;;;;21.60;13.75;;;;;;;;;;5026475;28;20041;-59
2021/06/18 05:26:18;;;;;;;22.95;14.82;;;;;;;;;;5030670;28;20065;-57
2021/06/18 05:28:45;;;;;;;23.00;13.30;;;;;;;;;;5028130;28;20047;-51
2021/06/18 05:31:13;;;;;;;23.20;15.15;;;;;;;;;;5029289;28;20151;-54
2021/06/18 05:33:39;;;;;;;22.08;14.45;;;;;;;;;;5026667;28;20060;-55
2021/06/18 05:36:06;;;;;;;25.38;17.10;;;;;;;;;;5029872;28;20064;-57
2021/06/18 05:38:32;;;;;;;29.83;16.92;;;;;;;;;;5042987;28;20037;-57
2021/06/18 05:40:59;;;;;;;25.70;15.40;;;;;;;;;;5035135;28;20052;-56
2021/06/18 05:43:25;;;;;;;24.38;15.95;;;;;;;;;;5036514;28;20037;-55
2021/06/18 05:45:53;;;;;;;28.30;16.05;;;;;;;;;;5025662;28;20142;-55
2021/06/18 05:48:20;;;;;;;22.90;15.38;;;;;;;;;;5040488;28;20084;-54
2021/06/18 05:50:47;;;;;;;26.52;15.45;;;;;;;;;;5030445;28;20107;-53
2021/06/18 05:53:14;;;;;;;24.85;16.15;;;;;;;;;;5038943;28;20051;-52
2021/06/18 05:55:42;;;;;;;25.73;15.82;;;;;;;;;;5025555;28;20040;-58
2021/06/18 05:58:08;;;;;;;22.40;14.68;;;;;;;;;;5028308;28;20181;-55
2021/06/18 06:00:35;;;;;;;24.77;17.05;;;;;;;;;;5024813;28;20041;-56
2021/06/18 06:03:01;;;;;;;27.52;14.75;;;;;;;;;;5037822;28;20040;-58
2021/06/18 06:05:36;;;;;;;26.27;15.35;;;;;;;;;;5040068;28;20037;-56
2021/06/18 06:08:02;;;;;;;19.52;12.00;;;;;;;;;;5038564;28;20033;-53
2021/06/18 06:10:29;;;;;;;22.40;14.27;;;;;;;;;;5032323;28;20056;-53
2021/06/18 06:12:55;;;;;;;20.80;12.98;;;;;;;;;;5043400;28;20041;-54
2021/06/18 06:15:22;;;;;;;17.23;11.98;;;;;;;;;;5040488;28;20044;-55
2021/06/18 06:17:49;;;;;;;19.80;12.15;;;;;;;;;;5043670;28;20044;-54
2021/06/18 06:20:16;;;;;;;20.38;13.15;;;;;;;;;;5040837;28;20037;-55
2021/06/18 06:22:44;;;;;;;22.00;13.05;;;;;;;;;;5042819;28;20044;-55
2021/06/18 06:25:11;;;;;;;21.58;12.63;;;;;;;;;;5041916;28;20127;-56
2021/06/18 06:27:38;;;;;;;22.80;13.20;;;;;;;;;;5043627;28;20138;-50
2021/06/18 06:30:06;;;;;;;20.90;13.65;;;;;;;;;;5043650;28;20029;-56
2021/06/18 06:32:33;;;;;;;20.13;12.40;;;;;;;;;;5042399;28;20045;-52
2021/06/18 06:35:02;;;;;;;20.63;12.35;;;;;;;;;;5045947;28;20060;-57
2021/06/18 06:37:29;;;;;;;17.65;11.60;;;;;;;;;;5043561;28;20040;-56
2021/06/18 06:39:57;;;;;;;18.88;12.48;;;;;;;;;;5048510;28;20044;-54
2021/06/18 06:42:23;;;;;;;18.48;11.82;;;;;;;;;;5046071;28;20126;-56
2021/06/18 06:44:50;;;;;;;18.77;11.98;;;;;;;;;;5046547;28;20049;-56
2021/06/18 06:47:16;;;;;;;21.52;12.98;;;;;;;;;;5058565;28;20040;-54
2021/06/18 06:49:44;;;;;;;22.30;11.95;;;;;;;;;;5045983;28;20041;-56
2021/06/18 06:52:11;;;;;;;18.05;11.70;;;;;;;;;;5046252;28;20037;-51
2021/06/18 06:54:38;;;;;;;18.45;12.18;;;;;;;;;;5029544;28;20044;-58
2021/06/18 06:57:06;;;;;;;23.30;12.85;;;;;;;;;;5042421;28;20029;-57
2021/06/18 06:59:32;;;;;;;18.15;11.25;;;;;;;;;;5044615;28;20033;-58
2021/06/18 07:01:59;;;;;;;22.38;11.52;;;;;;;;;;5060998;28;20125;-55
2021/06/18 07:04:26;;;;;;;17.40;11.25;;;;;;;;;;5064233;28;20130;-55
2021/06/18 07:06:52;;;;;;;18.38;12.13;;;;;;;;;;5042846;28;20121;-54
2021/06/18 07:09:19;;;;;;;17.48;11.48;;;;;;;;;;5039573;28;20289;-51
2021/06/18 07:11:45;;;;;;;17.27;11.20;;;;;;;;;;5042715;28;20037;-52
2021/06/18 07:14:14;;;;;;;19.75;11.57;;;;;;;;;;5043038;28;20122;-55
2021/06/18 07:16:41;;;;;;;18.55;10.85;;;;;;;;;;5045242;28;20043;-53
2021/06/18 07:19:08;;;;;;;19.40;11.05;;;;;;;;;;5058708;28;20133;-53
2021/06/18 07:21:34;;;;;;;17.05;10.95;;;;;;;;;;5066068;28;20101;-49
2021/06/18 07:24:00;;;;;;;16.25;10.05;;;;;;;;;;5046440;28;20099;-53
2021/06/18 07:26:28;;;;;;;17.13;10.63;;;;;;;;;;5062981;28;20261;-49
2021/06/18 07:28:54;;;;;;;16.40;10.85;;;;;;;;;;5061963;28;20055;-52
2021/06/18 07:31:22;;;;;;;18.13;10.63;;;;;;;;;;5047911;28;20049;-48
2021/06/18 07:33:49;;;;;;;16.38;10.85;;;;;;;;;;5041096;28;20028;-53
2021/06/18 07:36:16;;;;;;;17.17;9.85;;;;;;;;;;5044805;28;20037;-57
2021/06/18 07:38:43;;;;;;;18.05;10.02;;;;;;;;;;5044796;28;20053;-53
2021/06/18 07:41:10;;;;;;;16.17;10.68;;;;;;;;;;5046899;28;20045;-52
2021/06/18 07:43:36;;;;;;;16.50;10.35;;;;;;;;;;5040090;28;20036;-56
2021/06/18 07:46:09;;;;;;;14.32;9.82;;;;;;;;;;5037853;28;20092;-54
2021/06/18 07:48:37;;;;;;;14.40;9.77;;;;;;;;;;5041378;28;20117;-56
2021/06/18 07:51:04;;;;;;;15.57;9.07;;;;;;;;;;5033264;28;20126;-54
2021/06/18 07:53:33;;;;;;;15.88;9.35;;;;;;;;;;5041608;28;20037;-58
2021/06/18 07:56:00;;;;;;;19.60;9.00;;;;;;;;;;5026559;28;20069;-57
2021/06/18 07:58:26;;;;;;;15.60;9.50;;;;;;;;;;5015111;28;20037;-53
2021/06/18 08:00:55;;;;;;;13.32;8.52;;;;;;;;;;5035616;28;20358;-53
2021/06/18 08:03:22;;;;;;;12.95;8.35;;;;;;;;;;5027794;28;20033;-53
2021/06/18 08:05:50;;;;;;;13.90;8.02;;;;;;;;;;5062291;28;20092;-54
2021/06/18 08:08:16;;;;;;;13.10;8.57;;;;;;;;;;5066821;28;20071;-57
2021/06/18 08:10:43;;;;;;;14.85;8.48;;;;;;;;;;5064083;28;20044;-53
2021/06/18 08:13:11;;;;;;;12.30;8.40;;;;;;;;;;5085839;28;20043;-56
2021/06/18 08:15:38;;;;;;;13.68;7.82;;;;;;;;;;5063166;28;20092;-54
2021/06/18 08:18:05;;;;;;;15.60;8.65;;;;;;;;;;5066029;28;20064;-54
2021/06/18 08:20:31;;;;;;;14.63;8.93;;;;;;;;;;5062741;28;20141;-56
2021/06/18 08:22:59;;;;;;;15.43;8.48;;;;;;;;;;5065221;28;20084;-55
2021/06/18 08:25:27;;;;;;;15.90;8.73;;;;;;;;;;5061105;28;20032;-55
2021/06/18 08:27:53;;;;;;;13.50;8.48;;;;;;;;;;5083758;28;20044;-57
2021/06/18 08:30:20;;;;;;;13.00;8.50;;;;;;;;;;5061892;28;20040;-56
2021/06/18 08:32:47;;;;;;;15.18;8.90;;;;;;;;;;5065254;28;20044;-57
2021/06/18 08:35:14;;;;;;;14.73;9.15;;;;;;;;;;5079720;28;20059;-57
2021/06/18 08:37:40;;;;;;;16.05;9.48;;;;;;;;;;5064617;28;20043;-54
2021/06/18 08:40:09;;;;;;;16.75;9.15;;;;;;;;;;5065226;28;20021;-52
2021/06/18 08:42:36;;;;;;;19.52;9.55;;;;;;;;;;5061381;28;20056;-54
2021/06/18 08:45:03;;;;;;;13.57;9.15;;;;;;;;;;5065580;28;20118;-55
2021/06/18 08:47:30;;;;;;;14.67;9.20;;;;;;;;;;5061468;28;20069;-55
2021/06/18 08:49:57;;;;;;;16.55;9.60;;;;;;;;;;5063643;28;20049;-54
2021/06/18 08:52:24;;;;;;;13.98;9.27;;;;;;;;;;5043191;28;20051;-52
2021/06/18 08:54:51;;;;;;;16.38;9.95;;;;;;;;;;5055702;28;20056;-54
2021/06/18 08:57:20;;;;;;;16.23;9.57;;;;;;;;;;5078302;28;20050;-55
2021/06/18 08:59:47;;;;;;;14.93;9.95;;;;;;;;;;5087159;28;20052;-52
2021/06/18 09:02:14;;;;;;;16.90;10.27;;;;;;;;;;5060329;28;20043;-51
2021/06/18 09:05:00;;;;;;;16.43;9.80;;;;;;;;;;5050412;28;20045;-55
2021/06/18 09:07:26;;;;;;;14.32;9.50;;;;;;;;;;5041038;28;20032;-55
2021/06/18 09:09:53;;;;;;;19.25;10.65;;;;;;;;;;5034779;28;20103;-54
2021/06/18 09:12:23;;;;;;;19.90;11.02;;;;;;;;;;5028929;28;20102;-55
2021/06/18 09:14:50;;;;;;;16.08;10.65;;;;;;;;;;5044117;28;20051;-53
2021/06/18 09:17:19;;;;;;;19.38;12.50;;;;;;;;;;5041547;28;20056;-53
2021/06/18 09:19:48;;;;;;;18.92;11.95;;;;;;;;;;5042756;28;20033;-54
2021/06/18 09:22:16;;;;;;;21.30;12.32;;;;;;;;;;5041568;28;20056;-56
2021/06/18 09:24:45;;;;;;;22.90;12.93;;;;;;;;;;5044605;28;20126;-52
2021/06/18 09:27:12;;;;;;;22.48;12.15;;;;;;;;;;5041018;28;20045;-52
2021/06/18 09:29:40;;;;;;;20.70;12.00;;;;;;;;;;5045108;28;20047;-55
2021/06/18 09:32:07;;;;;;;26.33;12.27;;;;;;;;;;5044385;28;20045;-56
2021/06/18 09:34:39;;;;;;;16.92;12.32;;;;;;;;;;5041325;28;20047;-52
2021/06/18 09:37:13;;;;;;;20.75;12.90;;;;;;;;;;5044122;28;20044;-52
2021/06/18 09:39:53;;;;;;;23.08;14.15;;;;;;;;;;5041504;28;20052;-58
2021/06/18 09:42:23;;;;;;;22.73;14.30;;;;;;;;;;5043800;28;20122;-58
2021/06/18 09:45:01;;;;;;;24.98;12.68;;;;;;;;;;5041729;28;20048;-58
2021/06/18 09:47:28;;;;;;;21.02;13.20;;;;;;;;;;5043154;28;20075;-55
2021/06/18 09:49:54;;;;;;;22.05;14.50;;;;;;;;;;5041539;28;20041;-59
2021/06/18 09:52:21;;;;;;;20.48;11.48;;;;;;;;;;5043866;28;20047;-55
2021/06/18 09:54:52;;;;;;;21.08;13.23;;;;;;;;;;5040188;28;20037;-53
2021/06/18 09:57:21;;;;;;;21.95;13.05;;;;;;;;;;5061799;28;20067;-58
2021/06/18 09:59:48;;;;;;;24.58;13.43;;;;;;;;;;5040237;28;20052;-55
2021/06/18 10:02:18;;;;;;;20.15;14.20;;;;;;;;;;5044234;28;20056;-58
2021/06/18 10:04:48;;;;;;;23.13;13.13;;;;;;;;;;5056627;28;20174;-58
2021/06/18 10:07:17;;;;;;;24.15;13.52;;;;;;;;;;5043312;28;20052;-56
2021/06/18 10:09:44;;;;;;;22.52;11.60;;;;;;;;;;5039626;28;20036;-57
2021/06/18 10:12:11;;;;;;;20.80;14.13;;;;;;;;;;5043762;28;20040;-57
2021/06/18 10:14:38;;;;;;;23.85;14.73;;;;;;;;;;5040534;28;20051;-56
2021/06/18 10:17:04;;;;;;;21.50;13.35;;;;;;;;;;5043757;28;20049;-56
2021/06/18 10:19:32;;;;;;;29.13;13.13;;;;;;;;;;5040655;28;20036;-52
2021/06/18 10:22:02;;;;;;;27.05;14.75;;;;;;;;;;5060062;28;20122;-54
2021/06/18 10:24:33;;;;;;;26.30;13.63;;;;;;;;;;5057424;28;20032;-57
2021/06/18 10:27:00;;;;;;;24.42;13.82;;;;;;;;;;5044032;28;20041;-58
2021/06/18 10:29:31;;;;;;;20.88;13.40;;;;;;;;;;5043568;28;20036;-55
2021/06/18 10:31:58;;;;;;;22.77;13.85;;;;;;;;;;5042426;28;20102;-55
2021/06/18 10:34:39;;;;;;;21.80;13.15;;;;;;;;;;5042881;28;20052;-53
2021/06/18 10:37:19;;;;;;;24.77;13.45;;;;;;;;;;5040976;28;20123;-52
2021/06/18 10:39:50;;;;;;;22.15;12.55;;;;;;;;;;5044905;28;20068;-59
2021/06/18 10:42:17;;;;;;;23.42;12.85;;;;;;;;;;5040073;28;20037;-54
2021/06/18 10:44:48;;;;;;;25.90;13.23;;;;;;;;;;5044226;28;20036;-54
2021/06/18 10:47:36;;;;;;;18.95;11.77;;;;;;;;;;5040867;28;20036;-54
2021/06/18 10:50:05;;;;;;;17.03;11.03;;;;;;;;;;5042071;28;20044;-55
2021/06/18 10:52:36;;;;;;;19.15;11.25;;;;;;;;;;5038115;28;20037;-60
2021/06/18 10:55:03;;;;;;;18.80;10.60;;;;;;;;;;5043638;28;20100;-58
2021/06/18 10:57:30;;;;;;;22.33;12.30;;;;;;;;;;5058031;28;20049;-54
2021/06/18 10:59:58;;;;;;;19.30;10.82;;;;;;;;;;5043549;28;20040;-60
2021/06/18 11:02:35;;;;;;;21.63;11.18;;;;;;;;;;5059596;28;20028;-57
2021/06/18 11:05:21;;;;;;;21.27;11.20;;;;;;;;;;5060335;28;20069;-54
2021/06/18 11:07:49;;;;;;;16.40;10.45;;;;;;;;;;5025487;28;20045;-54
2021/06/18 11:10:28;;;;;;;18.00;10.98;;;;;;;;;;5027586;28;20037;-59
2021/06/18 11:12:54;;;;;;;;;;;;;;;;;;5035004;28;20052;-56
2021/06/18 11:15:37;;;;;;;19.30;10.90;;;;;;;;;;5043267;28;19978;-59
2021/06/18 11:18:11;;;;;;;19.65;12.38;;;;;;;;;;5038943;28;20056;-55
2021/06/18 11:21:02;;;;;;;21.27;12.55;;;;;;;;;;5046322;28;20058;-56
2021/06/18 11:23:34;;;;;;;16.95;10.80;;;;;;;;;;5012875;28;20048;-60
2021/06/18 11:26:03;;;;;;;20.90;11.35;;;;;;;;;;5059006;28;20040;-58
2021/06/18 11:28:35;;;;;;;17.65;11.32;;;;;;;;;;5041789;28;20109;-55
2021/06/18 11:31:03;;;;;;;22.48;11.30;;;;;;;;;;5027533;28;20073;-59
2021/06/18 11:33:59;;;;;;;19.98;10.68;;;;;;;;;;5034113;28;20028;-57
2021/06/18 11:36:50;;;;;;;20.13;12.07;;;;;;;;;;4965256;28;20050;-58
2021/06/18 11:39:31;;;;;;;19.65;12.13;;;;;;;;;;5037306;28;20118;-57
2021/06/18 11:42:15;;;;;;;21.05;11.55;;;;;;;;;;5044339;28;20041;-58
2021/06/18 11:44:43;;;;;;;22.35;12.05;;;;;;;;;;5041638;28;20049;-58
2021/06/18 11:47:09;;;;;;;19.33;11.85;;;;;;;;;;5036179;28;20045;-61
2021/06/18 11:49:43;;;;;;;20.17;12.68;;;;;;;;;;5042825;28;20041;-57
2021/06/18 11:52:10;;;;;;;23.48;11.50;;;;;;;;;;5043906;28;20094;-58
2021/06/18 11:54:40;;;;;;;24.65;11.60;;;;;;;;;;5042338;28;20045;-57
2021/06/18 11:57:08;;;;;;;16.08;9.93;;;;;;;;;;5044212;28;20051;-57
2021/06/18 11:59:37;;;;;;;25.80;12.55;;;;;;;;;;5043343;28;20052;-55
2021/06/18 12:02:13;;;;;;;23.48;13.35;;;;;;;;;;5044723;28;20057;-57
2021/06/18 12:04:40;;;;;;;19.55;11.15;;;;;;;;;;5039338;28;20060;-56
2021/06/18 12:07:06;;;;;;;23.83;10.35;;;;;;;;;;5041015;28;20068;-57
2021/06/18 12:09:40;;;;;;;19.98;10.30;;;;;;;;;;5040407;28;20021;-54
2021/06/18 12:12:08;;;;;;;22.65;12.10;;;;;;;;;;5042927;28;20037;-58
2021/06/18 12:14:36;;;;;;;20.83;10.40;;;;;;;;;;5040811;28;20045;-57
2021/06/18 12:17:03;;;;;;;15.88;8.32;;;;;;;;;;5043481;28;20040;-57
2021/06/18 12:19:30;;;;;;;22.83;11.15;;;;;;;;;;5040702;28;20081;-58
2021/06/18 12:22:01;;;;;;;20.13;11.47;;;;;;;;;;5044025;28;20041;-56
2021/06/18 12:24:30;;;;;;;17.42;10.35;;;;;;;;;;5041040;28;20142;-56
2021/06/18 12:26:58;;;;;;;19.27;11.50;;;;;;;;;;5062991;28;20117;-58
2021/06/18 12:29:27;;;;;;;17.02;8.13;;;;;;;;;;5059769;28;20041;-56
2021/06/18 12:31:55;;;;;;;17.88;8.85;;;;;;;;;;5031148;28;20041;-57
2021/06/18 12:34:22;;;;;;;16.02;9.07;;;;;;;;;;5032833;28;20045;-57
2021/06/18 12:36:49;;;;;;;23.10;11.27;;;;;;;;;;5043809;28;20044;-57
2021/06/18 12:39:15;;;;;;;19.53;9.17;;;;;;;;;;5063218;28;20041;-57
2021/06/18 12:41:49;;;;;;;19.10;8.98;;;;;;;;;;5042317;28;20048;-55
2021/06/18 12:44:28;;;;;;;18.23;9.13;;;;;;;;;;5047304;28;20036;-58
2021/06/18 12:46:58;;;;;;;17.58;6.50;;;;;;;;;;5061156;28;20064;-54
2021/06/18 12:49:29;;;;;;;15.02;7.50;;;;;;;;;;5044706;28;20126;-56
2021/06/18 12:52:08;;;;;;;16.02;9.18;;;;;;;;;;5060449;28;20044;-53
2021/06/18 12:54:35;;;;;;;15.10;7.68;;;;;;;;;;5044393;28;20065;-54
2021/06/18 12:57:02;;;;;;;16.83;7.88;;;;;;;;;;5059740;28;20122;-57
2021/06/18 12:59:37;;;;;;;16.85;8.05;;;;;;;;;;5045278;28;20125;-57
2021/06/18 13:02:04;;;;;;;14.02;7.10;;;;;;;;;;5041191;28;20073;-54
2021/06/18 13:04:34;;;;;;;13.57;7.00;;;;;;;;;;5043279;28;20034;-58
2021/06/18 13:07:01;;;;;;;14.07;6.07;;;;;;;;;;5058054;28;20045;-58
2021/06/18 13:09:34;;;;;;;13.48;5.95;;;;;;;;;;5046787;28;20044;-56
2021/06/18 13:12:01;;;;;;;12.57;6.40;;;;;;;;;;5058541;28;20048;-51
2021/06/18 13:14:29;;;;;;;15.55;6.18;;;;;;;;;;5044730;28;20052;-59
2021/06/18 13:16:56;;;;;;;;;;;;;;;;;;5041359;28;20044;-55
2021/06/18 13:19:37;;;;;;;19.50;6.15;;;;;;;;;;5060605;28;19952;-55
2021/06/18 13:22:09;;;;;;;12.98;6.53;;;;;;;;;;5041508;28;20056;-57
2021/06/18 13:24:47;;;;;;;10.82;5.65;;;;;;;;;;5041567;28;20171;-54
2021/06/18 13:27:13;;;;;;;11.43;5.43;;;;;;;;;;5039857;28;20044;-54
2021/06/18 13:29:45;;;;;;;12.65;6.40;;;;;;;;;;5062898;28;20045;-53
2021/06/18 13:32:12;;;;;;;14.43;5.20;;;;;;;;;;5039674;28;20052;-55
2021/06/18 13:34:41;;;;;;;10.35;5.32;;;;;;;;;;5062346;28;20067;-53
2021/06/18 13:37:08;;;;;;;11.63;5.85;;;;;;;;;;5040679;28;20045;-56
2021/06/18 13:39:39;;;;;;;9.48;5.20;;;;;;;;;;5044255;28;20037;-56
2021/06/18 13:42:06;;;;;;;13.85;5.55;;;;;;;;;;5041154;28;20043;-55
2021/06/18 13:44:33;;;;;;;11.60;5.20;;;;;;;;;;5024423;28;20045;-55
2021/06/18 13:47:01;;;;;;;11.68;5.30;;;;;;;;;;5041241;28;20089;-55
2021/06/18 13:49:27;;;;;;;11.82;6.18;;;;;;;;;;5040301;28;20049;-55
2021/06/18 13:51:55;;;;;;;16.00;5.10;;;;;;;;;;5061928;28;20041;-54
2021/06/18 13:54:21;;;;;;;14.13;5.60;;;;;;;;;;5059030;28;20044;-56
2021/06/18 13:56:48;;;;;;;11.02;4.82;;;;;;;;;;5025149;28;20196;-55
2021/06/18 13:59:14;;;;;;;13.18;4.88;;;;;;;;;;5040035;28;20053;-56
2021/06/18 14:01:41;;;;;;;12.55;4.85;;;;;;;;;;5062520;28;20056;-56
2021/06/18 14:04:08;;;;;;;15.48;5.70;;;;;;;;;;5038024;28;20073;-55
2021/06/18 14:06:35;;;;;;;10.25;5.15;;;;;;;;;;5042997;28;20057;-56
2021/06/18 14:09:04;;;;;;;12.55;5.53;;;;;;;;;;5054082;28;20041;-51
2021/06/18 14:11:31;;;;;;;13.00;4.88;;;;;;;;;;5024225;28;20033;-53
2021/06/18 14:14:01;;;;;;;14.77;6.03;;;;;;;;;;5029706;28;20033;-54
2021/06/18 14:16:28;;;;;;;15.30;5.45;;;;;;;;;;5043865;28;20041;-55
2021/06/18 14:18:54;;;;;;;14.85;6.03;;;;;;;;;;5040425;28;20029;-53
2021/06/18 14:21:21;;;;;;;13.27;5.53;;;;;;;;;;5044131;28;20116;-55
2021/06/18 14:23:47;;;;;;;9.25;4.70;;;;;;;;;;5058401;28;20056;-55
2021/06/18 14:26:15;;;;;;;10.13;5.10;;;;;;;;;;5043552;28;20064;-54
2021/06/18 14:28:41;;;;;;;10.23;4.82;;;;;;;;;;5043574;28;20037;-55
2021/06/18 14:31:09;;;;;;;13.52;5.07;;;;;;;;;;5038883;28;20118;-54